Time,TemperatureF,DewpointF,PressureIn,WindDirection,WindDirectionDegrees,WindSpeedMPH,WindSpeedGustMPH,Humidity,HourlyPrecipIn,Conditions,Clouds,dailyrainin,SoftwareType,DateUTC
2013-02-17 00:02:00,55.0,-99.9,30.06,NW,321,16.0,20.0,-999,-99.99,,,-99.99,,2013-02-17 05:02:00,
2013-02-17 00:12:00,55.0,-99.9,30.06,NW,324,15.0,20.0,-999,-99.99,,,-99.99,,2013-02-17 05:12:00,
2013-02-17 00:22:00,55.0,-99.9,30.06,NW,323,15.0,20.0,-999,-99.99,,,-99.99,,2013-02-17 05:22:00,
2013-02-17 00:33:00,55.0,-99.9,30.06,NW,323,12.0,17.0,-999,-99.99,,,-99.99,,2013-02-17 05:33:00,
2013-02-17 00:42:00,55.0,-99.9,30.06,NW,323,16.0,22.0,-999,-99.99,,,-99.99,,2013-02-17 05:42:00,
2013-02-17 00:52:00,55.0,-99.9,30.06,NW,318,13.0,17.0,-999,-99.99,,,-99.99,,2013-02-17 05:52:00,
2013-02-17 01:02:00,55.0,-99.9,30.07,NW,317,12.0,17.0,-999,-99.99,,,-99.99,,2013-02-17 06:02:00,
2013-02-17 01:11:00,54.0,-99.9,30.07,NW,318,15.0,19.0,-999,-99.99,,,-99.99,,2013-02-17 06:11:00,
2013-02-17 01:21:00,54.0,-99.9,30.07,NW,316,11.0,15.0,-999,-99.99,,,-99.99,,2013-02-17 06:21:00,
2013-02-17 01:32:00,54.0,-99.9,30.07,NW,317,11.0,16.0,-999,-99.99,,,-99.99,,2013-02-17 06:32:00,
2013-02-17 01:42:00,54.0,-99.9,30.07,NW,322,13.0,21.0,-999,-99.99,,,-99.99,,2013-02-17 06:42:00,
2013-02-17 01:52:00,54.0,-99.9,30.07,NW,314,12.0,20.0,-999,-99.99,,,-99.99,,2013-02-17 06:52:00,
2013-02-17 02:02:00,54.0,-99.9,30.07,NW,312,13.0,18.0,-999,-99.99,,,-99.99,,2013-02-17 07:02:00,
2013-02-17 02:11:00,54.0,-99.9,30.07,NW,316,13.0,17.0,-999,-99.99,,,-99.99,,2013-02-17 07:11:00,
2013-02-17 02:21:00,54.0,-99.9,30.06,NW,312,14.0,19.0,-999,-99.99,,,-99.99,,2013-02-17 07:21:00,
2013-02-17 02:32:00,54.0,-99.9,30.06,NW,325,17.0,26.0,-999,-99.99,,,-99.99,,2013-02-17 07:32:00,
2013-02-17 02:42:00,54.0,-99.9,30.07,NW,317,18.0,26.0,-999,-99.99,,,-99.99,,2013-02-17 07:42:00,
2013-02-17 02:52:00,54.0,-99.9,30.06,NW,317,16.0,26.0,-999,-99.99,,,-99.99,,2013-02-17 07:52:00,
2013-02-17 03:01:00,53.0,-99.9,30.07,NW,321,22.0,34.0,-999,-99.99,,,-99.99,,2013-02-17 08:01:00,
2013-02-17 03:11:00,53.0,-99.9,30.07,NNW,327,22.0,31.0,-999,-99.99,,,-99.99,,2013-02-17 08:11:00,
2013-02-17 03:22:00,52.0,-99.9,30.07,NNW,330,21.0,29.0,-999,-99.99,,,-99.99,,2013-02-17 08:22:00,
2013-02-17 03:32:00,52.0,-99.9,30.07,NW,326,20.0,28.0,-999,-99.99,,,-99.99,,2013-02-17 08:32:00,
2013-02-17 03:42:00,51.0,-99.9,30.07,NNW,330,16.0,24.0,-999,-99.99,,,-99.99,,2013-02-17 08:42:00,
2013-02-17 03:52:00,51.0,-99.9,30.08,NNW,332,17.0,26.0,-999,-99.99,,,-99.99,,2013-02-17 08:52:00,
2013-02-17 04:02:00,51.0,-99.9,30.08,NNW,335,17.0,23.0,-999,-99.99,,,-99.99,,2013-02-17 09:02:00,
2013-02-17 04:11:00,50.0,-99.9,30.09,NNW,330,18.0,24.0,-999,-99.99,,,-99.99,,2013-02-17 09:11:00,
2013-02-17 04:21:00,50.0,-99.9,30.09,NNW,335,19.0,23.0,-999,-99.99,,,-99.99,,2013-02-17 09:21:00,
2013-02-17 04:32:00,50.0,-99.9,30.09,NNW,331,21.0,25.0,-999,-99.99,,,-99.99,,2013-02-17 09:32:00,
2013-02-17 04:42:00,50.0,-99.9,30.09,NNW,334,20.0,28.0,-999,-99.99,,,-99.99,,2013-02-17 09:42:00,
2013-02-17 04:52:00,50.0,-99.9,30.10,NNW,332,19.0,28.0,-999,-99.99,,,-99.99,,2013-02-17 09:52:00,
2013-02-17 05:01:00,49.0,-99.9,30.10,NNW,331,20.0,30.0,-999,-99.99,,,-99.99,,2013-02-17 10:01:00,
2013-02-17 05:11:00,49.0,-99.9,30.11,NNW,335,25.0,31.0,-999,-99.99,,,-99.99,,2013-02-17 10:11:00,
2013-02-17 05:22:00,48.0,-99.9,30.11,NNW,331,23.0,28.0,-999,-99.99,,,-99.99,,2013-02-17 10:22:00,
2013-02-17 05:32:00,48.0,-99.9,30.12,NNW,335,25.0,30.0,-999,-99.99,,,-99.99,,2013-02-17 10:32:00,
2013-02-17 05:42:00,48.0,-99.9,30.13,NNW,328,21.0,27.0,-999,-99.99,,,-99.99,,2013-02-17 10:42:00,
2013-02-17 05:52:00,47.0,-99.9,30.14,NNW,327,20.0,28.0,-999,-99.99,,,-99.99,,2013-02-17 10:52:00,
2013-02-17 06:01:00,47.0,-99.9,30.14,NNW,328,16.0,28.0,-999,-99.99,,,-99.99,,2013-02-17 11:01:00,
2013-02-17 06:11:00,47.0,-99.9,30.14,NNW,330,18.0,27.0,-999,-99.99,,,-99.99,,2013-02-17 11:11:00,
2013-02-17 06:22:00,47.0,-99.9,30.14,NNW,332,22.0,28.0,-999,-99.99,,,-99.99,,2013-02-17 11:22:00,
2013-02-17 06:32:00,47.0,-99.9,30.15,NNW,328,19.0,25.0,-999,-99.99,,,-99.99,,2013-02-17 11:32:00,
2013-02-17 06:42:00,46.0,-99.9,30.16,NNW,330,20.0,27.0,-999,-99.99,,,-99.99,,2013-02-17 11:42:00,
2013-02-17 06:53:00,46.0,-99.9,30.16,NNW,330,19.0,23.0,-999,-99.99,,,-99.99,,2013-02-17 11:53:00,
2013-02-17 07:03:00,46.0,-99.9,30.16,NNW,331,19.0,24.0,-999,-99.99,,,-99.99,,2013-02-17 12:03:00,
2013-02-17 07:11:00,46.0,-99.9,30.17,NNW,333,21.0,25.0,-999,-99.99,,,-99.99,,2013-02-17 12:11:00,
2013-02-17 07:22:00,45.0,-99.9,30.17,NNW,329,18.0,27.0,-999,-99.99,,,-99.99,,2013-02-17 12:22:00,
2013-02-17 07:32:00,45.0,-99.9,30.17,NNW,331,21.0,26.0,-999,-99.99,,,-99.99,,2013-02-17 12:32:00,
2013-02-17 07:42:00,45.0,-99.9,30.18,NNW,331,18.0,25.0,-999,-99.99,,,-99.99,,2013-02-17 12:42:00,
2013-02-17 07:52:00,45.0,-99.9,30.18,NNW,328,18.0,24.0,-999,-99.99,,,-99.99,,2013-02-17 12:52:00,
2013-02-17 08:02:00,45.0,-99.9,30.18,NNW,328,22.0,25.0,-999,-99.99,,,-99.99,,2013-02-17 13:02:00,
2013-02-17 08:12:00,45.0,-99.9,30.19,NNW,332,19.0,24.0,-999,-99.99,,,-99.99,,2013-02-17 13:12:00,
2013-02-17 08:22:00,45.0,-99.9,30.20,NW,324,18.0,24.0,-999,-99.99,,,-99.99,,2013-02-17 13:22:00,
2013-02-17 08:32:00,46.0,-99.9,30.20,NNW,328,21.0,28.0,-999,-99.99,,,-99.99,,2013-02-17 13:32:00,
2013-02-17 08:42:00,46.0,-99.9,30.21,NW,326,23.0,31.0,-999,-99.99,,,-99.99,,2013-02-17 13:42:00,
2013-02-17 08:52:00,46.0,-99.9,30.21,NNW,331,23.0,30.0,-999,-99.99,,,-99.99,,2013-02-17 13:52:00,
2013-02-17 09:01:00,46.0,-99.9,30.22,NW,322,23.0,30.0,-999,-99.99,,,-99.99,,2013-02-17 14:01:00,
2013-02-17 09:11:00,46.0,-99.9,30.22,NNW,329,22.0,29.0,-999,-99.99,,,-99.99,,2013-02-17 14:11:00,
2013-02-17 09:22:00,47.0,-99.9,30.23,NNW,327,22.0,31.0,-999,-99.99,,,-99.99,,2013-02-17 14:22:00,
2013-02-17 09:32:00,47.0,-99.9,30.23,NNW,327,25.0,29.0,-999,-99.99,,,-99.99,,2013-02-17 14:32:00,
2013-02-17 09:42:00,47.0,-99.9,30.23,NNW,339,23.0,30.0,-999,-99.99,,,-99.99,,2013-02-17 14:42:00,
2013-02-17 09:53:00,47.0,-99.9,30.23,NNW,330,20.0,27.0,-999,-99.99,,,-99.99,,2013-02-17 14:53:00,
2013-02-17 10:02:00,48.0,-99.9,30.24,NW,319,23.0,31.0,-999,-99.99,,,-99.99,,2013-02-17 15:02:00,
2013-02-17 10:11:00,48.0,-99.9,30.24,NNW,335,21.0,26.0,-999,-99.99,,,-99.99,,2013-02-17 15:11:00,
2013-02-17 10:22:00,48.0,-99.9,30.24,NNW,329,20.0,29.0,-999,-99.99,,,-99.99,,2013-02-17 15:22:00,
2013-02-17 10:32:00,49.0,-99.9,30.25,NW,326,19.0,23.0,-999,-99.99,,,-99.99,,2013-02-17 15:32:00,
2013-02-17 10:42:00,49.0,-99.9,30.25,NNW,330,19.0,24.0,-999,-99.99,,,-99.99,,2013-02-17 15:42:00,
2013-02-17 10:52:00,49.0,-99.9,30.25,NNW,331,19.0,26.0,-999,-99.99,,,-99.99,,2013-02-17 15:52:00,
2013-02-17 11:02:00,49.0,-99.9,30.25,NNW,329,19.0,26.0,-999,-99.99,,,-99.99,,2013-02-17 16:02:00,
2013-02-17 11:12:00,49.0,-99.9,30.25,NNW,330,19.0,27.0,-999,-99.99,,,-99.99,,2013-02-17 16:12:00,
2013-02-17 11:22:00,49.0,-99.9,30.25,NNW,348,21.0,28.0,-999,-99.99,,,-99.99,,2013-02-17 16:22:00,
2013-02-17 11:32:00,50.0,-99.9,30.25,NNW,345,15.0,21.0,-999,-99.99,,,-99.99,,2013-02-17 16:32:00,
2013-02-17 11:42:00,50.0,-99.9,30.26,NNW,340,16.0,26.0,-999,-99.99,,,-99.99,,2013-02-17 16:42:00,
2013-02-17 11:52:00,50.0,-99.9,30.26,NW,320,14.0,27.0,-999,-99.99,,,-99.99,,2013-02-17 16:52:00,
2013-02-17 12:02:00,51.0,-99.9,30.25,NNW,347,17.0,23.0,-999,-99.99,,,-99.99,,2013-02-17 17:02:00,
2013-02-17 12:11:00,50.0,-99.9,30.25,North,351,19.0,24.0,-999,-99.99,,,-99.99,,2013-02-17 17:11:00,
2013-02-17 12:22:00,51.0,-99.9,30.25,NNW,341,15.0,25.0,-999,-99.99,,,-99.99,,2013-02-17 17:22:00,
2013-02-17 12:32:00,50.0,-99.9,30.25,NNW,327,17.0,23.0,-999,-99.99,,,-99.99,,2013-02-17 17:32:00,
2013-02-17 12:42:00,51.0,-99.9,30.24,North,360,20.0,24.0,-999,-99.99,,,-99.99,,2013-02-17 17:42:00,
2013-02-17 12:53:00,51.0,-99.9,30.24,NNW,331,14.0,23.0,-999,-99.99,,,-99.99,,2013-02-17 17:53:00,
2013-02-17 13:02:00,51.0,-99.9,30.24,NNW,332,15.0,19.0,-999,-99.99,,,-99.99,,2013-02-17 18:02:00,
2013-02-17 13:11:00,52.0,-99.9,30.24,NNW,347,20.0,24.0,-999,-99.99,,,-99.99,,2013-02-17 18:11:00,
2013-02-17 13:22:00,51.0,-99.9,30.24,North,349,17.0,23.0,-999,-99.99,,,-99.99,,2013-02-17 18:22:00,
2013-02-17 13:33:00,52.0,-99.9,30.24,NNW,329,17.0,21.0,-999,-99.99,,,-99.99,,2013-02-17 18:33:00,
2013-02-17 13:42:00,52.0,-99.9,30.24,NW,315,10.0,16.0,-999,-99.99,,,-99.99,,2013-02-17 18:42:00,
2013-02-17 13:52:00,53.0,-99.9,30.23,NNW,335,16.0,22.0,-999,-99.99,,,-99.99,,2013-02-17 18:52:00,
2013-02-17 14:02:00,52.0,-99.9,30.23,North,352,17.0,21.0,-999,-99.99,,,-99.99,,2013-02-17 19:02:00,
2013-02-17 14:11:00,53.0,-99.9,30.22,North,8,17.0,21.0,-999,-99.99,,,-99.99,,2013-02-17 19:11:00,
2013-02-17 14:22:00,53.0,-99.9,30.22,North,351,14.0,20.0,-999,-99.99,,,-99.99,,2013-02-17 19:22:00,
2013-02-17 14:32:00,53.0,-99.9,30.22,North,-999,11.0,18.0,-999,-99.99,,,-99.99,,2013-02-17 19:32:00,
2013-02-17 14:42:00,53.0,-99.9,30.22,North,10,15.0,24.0,-999,-99.99,,,-99.99,,2013-02-17 19:42:00,
2013-02-17 14:52:00,53.0,-99.9,30.22,North,8,14.0,22.0,-999,-99.99,,,-99.99,,2013-02-17 19:52:00,
2013-02-17 15:02:00,53.0,-99.9,30.22,North,7,19.0,26.0,-999,-99.99,,,-99.99,,2013-02-17 20:02:00,
2013-02-17 15:11:00,53.0,-99.9,30.22,North,-999,16.0,25.0,-999,-99.99,,,-99.99,,2013-02-17 20:11:00,
2013-02-17 15:22:00,54.0,-99.9,30.22,North,2,16.0,26.0,-999,-99.99,,,-99.99,,2013-02-17 20:22:00,
2013-02-17 15:32:00,53.0,-99.9,30.22,North,7,18.0,28.0,-999,-99.99,,,-99.99,,2013-02-17 20:32:00,
2013-02-17 15:43:00,53.0,-99.9,30.22,NNE,12,22.0,26.0,-999,-99.99,,,-99.99,,2013-02-17 20:43:00,
2013-02-17 15:52:00,53.0,-99.9,30.22,North,7,22.0,26.0,-999,-99.99,,,-99.99,,2013-02-17 20:52:00,
2013-02-17 16:02:00,53.0,-99.9,30.22,North,3,16.0,26.0,-999,-99.99,,,-99.99,,2013-02-17 21:02:00,
2013-02-17 16:11:00,53.0,-99.9,30.22,North,6,21.0,25.0,-999,-99.99,,,-99.99,,2013-02-17 21:11:00,
2013-02-17 16:22:00,54.0,-99.9,30.22,North,7,15.0,24.0,-999,-99.99,,,-99.99,,2013-02-17 21:22:00,
2013-02-17 16:32:00,54.0,-99.9,30.22,North,11,18.0,23.0,-999,-99.99,,,-99.99,,2013-02-17 21:32:00,
2013-02-17 16:42:00,53.0,-99.9,30.22,North,8,20.0,24.0,-999,-99.99,,,-99.99,,2013-02-17 21:42:00,
2013-02-17 16:53:00,53.0,-99.9,30.22,North,7,20.0,24.0,-999,-99.99,,,-99.99,,2013-02-17 21:53:00,
2013-02-17 17:01:00,54.0,-99.9,30.23,North,5,20.0,26.0,-999,-99.99,,,-99.99,,2013-02-17 22:01:00,
2013-02-17 17:12:00,54.0,-99.9,30.23,North,351,19.0,25.0,-999,-99.99,,,-99.99,,2013-02-17 22:12:00,
2013-02-17 17:22:00,54.0,-99.9,30.23,North,4,23.0,26.0,-999,-99.99,,,-99.99,,2013-02-17 22:22:00,
2013-02-17 17:32:00,53.0,-99.9,30.23,North,355,17.0,23.0,-999,-99.99,,,-99.99,,2013-02-17 22:32:00,
2013-02-17 17:42:00,53.0,-99.9,30.23,North,-999,17.0,22.0,-999,-99.99,,,-99.99,,2013-02-17 22:42:00,
2013-02-17 17:52:00,53.0,-99.9,30.23,North,-999,18.0,26.0,-999,-99.99,,,-99.99,,2013-02-17 22:52:00,
2013-02-17 18:02:00,53.0,-99.9,30.23,North,355,17.0,22.0,-999,-99.99,,,-99.99,,2013-02-17 23:02:00,
2013-02-17 18:11:00,53.0,-99.9,30.24,NNW,348,19.0,23.0,-999,-99.99,,,-99.99,,2013-02-17 23:11:00,
2013-02-17 18:22:00,53.0,-99.9,30.24,NNW,347,16.0,20.0,-999,-99.99,,,-99.99,,2013-02-17 23:22:00,
2013-02-17 18:32:00,53.0,-99.9,30.24,NNW,335,17.0,21.0,-999,-99.99,,,-99.99,,2013-02-17 23:32:00,
2013-02-17 18:42:00,53.0,-99.9,30.25,North,352,17.0,23.0,-999,-99.99,,,-99.99,,2013-02-17 23:42:00,
2013-02-17 18:52:00,53.0,-99.9,30.25,NNW,331,13.0,17.0,-999,-99.99,,,-99.99,,2013-02-17 23:52:00,
2013-02-17 19:02:00,52.0,-99.9,30.25,NNW,341,14.0,17.0,-999,-99.99,,,-99.99,,2013-02-18 00:02:00,
2013-02-17 19:12:00,52.0,-99.9,30.26,NNW,334,12.0,17.0,-999,-99.99,,,-99.99,,2013-02-18 00:12:00,
2013-02-17 19:22:00,52.0,-99.9,30.26,NNW,335,12.0,17.0,-999,-99.99,,,-99.99,,2013-02-18 00:22:00,
2013-02-17 19:32:00,52.0,-99.9,30.26,NNW,335,15.0,18.0,-999,-99.99,,,-99.99,,2013-02-18 00:32:00,
2013-02-17 19:42:00,52.0,-99.9,30.26,NW,323,11.0,17.0,-999,-99.99,,,-99.99,,2013-02-18 00:42:00,
2013-02-17 19:52:00,52.0,-99.9,30.27,NNW,329,11.0,16.0,-999,-99.99,,,-99.99,,2013-02-18 00:52:00,
2013-02-17 20:01:00,52.0,-99.9,30.27,NNW,329,12.0,14.0,-999,-99.99,,,-99.99,,2013-02-18 01:01:00,
2013-02-17 20:12:00,51.0,-99.9,30.27,NW,320,10.0,17.0,-999,-99.99,,,-99.99,,2013-02-18 01:12:00,
2013-02-17 20:22:00,51.0,-99.9,30.27,NW,318,12.0,14.0,-999,-99.99,,,-99.99,,2013-02-18 01:22:00,
2013-02-17 20:32:00,51.0,-99.9,30.27,NW,322,13.0,15.0,-999,-99.99,,,-99.99,,2013-02-18 01:32:00,
2013-02-17 20:42:00,51.0,-99.9,30.27,NW,324,12.0,14.0,-999,-99.99,,,-99.99,,2013-02-18 01:42:00,
2013-02-17 20:52:00,51.0,-99.9,30.27,NW,319,11.0,15.0,-999,-99.99,,,-99.99,,2013-02-18 01:52:00,
2013-02-17 21:02:00,51.0,-99.9,30.28,NW,324,11.0,15.0,-999,-99.99,,,-99.99,,2013-02-18 02:02:00,
2013-02-17 21:11:00,51.0,-99.9,30.28,NW,319,11.0,14.0,-999,-99.99,,,-99.99,,2013-02-18 02:11:00,
2013-02-17 21:22:00,51.0,-99.9,30.28,NW,321,10.0,13.0,-999,-99.99,,,-99.99,,2013-02-18 02:22:00,
2013-02-17 21:32:00,51.0,-99.9,30.28,NW,319,11.0,15.0,-999,-99.99,,,-99.99,,2013-02-18 02:32:00,
2013-02-17 21:42:00,51.0,-99.9,30.27,NW,319,11.0,13.0,-999,-99.99,,,-99.99,,2013-02-18 02:42:00,
2013-02-17 21:52:00,51.0,-99.9,30.28,NW,317,12.0,15.0,-999,-99.99,,,-99.99,,2013-02-18 02:52:00,
2013-02-17 22:02:00,51.0,-99.9,30.28,NW,310,11.0,13.0,-999,-99.99,,,-99.99,,2013-02-18 03:02:00,
2013-02-17 22:12:00,51.0,-99.9,30.28,NW,320,11.0,15.0,-999,-99.99,,,-99.99,,2013-02-18 03:12:00,
2013-02-17 22:22:00,51.0,-99.9,30.28,NW,316,11.0,15.0,-999,-99.99,,,-99.99,,2013-02-18 03:22:00,
2013-02-17 22:32:00,50.0,-99.9,30.27,NW,315,12.0,15.0,-999,-99.99,,,-99.99,,2013-02-18 03:32:00,
2013-02-17 22:42:00,50.0,-99.9,30.28,NW,314,11.0,16.0,-999,-99.99,,,-99.99,,2013-02-18 03:42:00,
2013-02-17 22:52:00,50.0,-99.9,30.28,NW,316,11.0,16.0,-999,-99.99,,,-99.99,,2013-02-18 03:52:00,
2013-02-17 23:01:00,50.0,-99.9,30.27,NW,311,10.0,15.0,-999,-99.99,,,-99.99,,2013-02-18 04:01:00,
2013-02-17 23:11:00,50.0,-99.9,30.28,NW,311,10.0,13.0,-999,-99.99,,,-99.99,,2013-02-18 04:11:00,
2013-02-17 23:22:00,50.0,-99.9,30.28,NW,306,10.0,13.0,-999,-99.99,,,-99.99,,2013-02-18 04:22:00,
2013-02-17 23:32:00,50.0,-99.9,30.28,WNW,301,9.0,14.0,-999,-99.99,,,-99.99,,2013-02-18 04:32:00,
2013-02-17 23:42:00,49.0,-99.9,30.28,WNW,303,12.0,13.0,-999,-99.99,,,-99.99,,2013-02-18 04:42:00,
2013-02-17 23:52:00,49.0,-99.9,30.28,WNW,303,11.0,14.0,-999,-99.99,,,-99.99,,2013-02-18 04:52:00,